sensor_id;sensor_type;location;lat;lon;timestamp;pressure;altitude;pressure_sealevel;temperature;humidity
21395;BME280;10858;42.714;23.180;2023-05-03T00:01:52;94632.28;;;13.56;45.18
21395;BME280;10858;42.714;23.180;2023-05-03T00:04:19;94632.59;;;13.71;45.17
21395;BME280;10858;42.714;23.180;2023-05-03T00:06:45;94640.06;;;13.68;44.93
21395;BME280;10858;42.714;23.180;2023-05-03T00:09:11;94638.41;;;13.57;44.91
21395;BME280;10858;42.714;23.180;2023-05-03T00:11:37;94642.63;;;13.59;45.37
21395;BME280;10858;42.714;23.180;2023-05-03T00:14:03;94641.19;;;13.65;45.45
21395;BME280;10858;42.714;23.180;2023-05-03T00:16:29;94649.13;;;13.47;45.26
21395;BME280;10858;42.714;23.180;2023-05-03T00:18:56;94653.94;;;13.34;45.51
21395;BME280;10858;42.714;23.180;2023-05-03T00:21:22;94653.03;;;13.53;44.65
21395;BME280;10858;42.714;23.180;2023-05-03T00:23:48;94653.31;;;13.50;45.43
21395;BME280;10858;42.714;23.180;2023-05-03T00:26:14;94650.34;;;13.90;44.39
21395;BME280;10858;42.714;23.180;2023-05-03T00:28:41;94652.72;;;13.93;43.91
21395;BME280;10858;42.714;23.180;2023-05-03T00:31:08;94658.16;;;14.01;43.74
21395;BME280;10858;42.714;23.180;2023-05-03T00:33:38;94660.44;;;14.13;43.90
21395;BME280;10858;42.714;23.180;2023-05-03T00:36:08;94661.38;;;13.68;44.51
21395;BME280;10858;42.714;23.180;2023-05-03T00:38:35;94661.28;;;13.59;44.48
21395;BME280;10858;42.714;23.180;2023-05-03T00:41:02;94657.94;;;13.85;43.82
21395;BME280;10858;42.714;23.180;2023-05-03T00:43:28;94660.81;;;13.74;44.48
21395;BME280;10858;42.714;23.180;2023-05-03T00:45:55;94644.47;;;13.86;44.39
21395;BME280;10858;42.714;23.180;2023-05-03T00:48:21;94651.41;;;13.70;44.39
21395;BME280;10858;42.714;23.180;2023-05-03T00:50:48;94650.97;;;13.74;44.40
21395;BME280;10858;42.714;23.180;2023-05-03T00:53:15;94653.09;;;13.34;44.55
21395;BME280;10858;42.714;23.180;2023-05-03T00:55:42;94652.69;;;13.29;45.35
21395;BME280;10858;42.714;23.180;2023-05-03T00:58:09;94645.59;;;13.10;44.72
21395;BME280;10858;42.714;23.180;2023-05-03T01:00:35;94650.34;;;13.16;45.12
21395;BME280;10858;42.714;23.180;2023-05-03T01:03:02;94641.78;;;13.22;45.34
21395;BME280;10858;42.714;23.180;2023-05-03T01:05:35;94639.88;;;12.86;45.65
21395;BME280;10858;42.714;23.180;2023-05-03T01:11:26;94645.59;;;12.91;45.33
21395;BME280;10858;42.714;23.180;2023-05-03T01:16:30;94615.91;;;12.86;45.29
21395;BME280;10858;42.714;23.180;2023-05-03T01:19:02;94631.16;;;12.94;45.58
21395;BME280;10858;42.714;23.180;2023-05-03T01:21:29;94636.66;;;12.63;45.50
21395;BME280;10858;42.714;23.180;2023-05-03T01:24:16;94634.16;;;12.52;45.37
21395;BME280;10858;42.714;23.180;2023-05-03T01:26:43;94623.09;;;12.38;45.79
21395;BME280;10858;42.714;23.180;2023-05-03T01:29:09;94629.41;;;12.46;45.96
21395;BME280;10858;42.714;23.180;2023-05-03T01:34:42;94623.81;;;12.30;45.96
21395;BME280;10858;42.714;23.180;2023-05-03T01:37:12;94627.41;;;12.39;46.32
21395;BME280;10858;42.714;23.180;2023-05-03T01:42:15;94631.75;;;12.59;46.64
21395;BME280;10858;42.714;23.180;2023-05-03T01:44:43;94625.19;;;12.72;45.46
21395;BME280;10858;42.714;23.180;2023-05-03T01:47:09;94624.06;;;12.56;45.83
21395;BME280;10858;42.714;23.180;2023-05-03T01:49:35;94623.06;;;12.57;45.99
21395;BME280;10858;42.714;23.180;2023-05-03T01:52:03;94623.78;;;12.49;46.28
21395;BME280;10858;42.714;23.180;2023-05-03T01:54:29;94617.63;;;12.49;46.13
21395;BME280;10858;42.714;23.180;2023-05-03T01:56:55;94615.38;;;12.35;46.83
21395;BME280;10858;42.714;23.180;2023-05-03T01:59:21;94621.41;;;12.37;45.88
21395;BME280;10858;42.714;23.180;2023-05-03T02:01:48;94611.19;;;12.51;46.02
21395;BME280;10858;42.714;23.180;2023-05-03T02:04:14;94612.84;;;12.43;46.63
21395;BME280;10858;42.714;23.180;2023-05-03T02:06:40;94602.94;;;12.54;46.28
21395;BME280;10858;42.714;23.180;2023-05-03T02:09:06;94604.03;;;12.33;46.83
21395;BME280;10858;42.714;23.180;2023-05-03T02:11:33;94615.66;;;12.41;46.95
21395;BME280;10858;42.714;23.180;2023-05-03T02:13:59;94608.94;;;12.09;47.71
21395;BME280;10858;42.714;23.180;2023-05-03T02:16:25;94612.84;;;12.43;47.38
21395;BME280;10858;42.714;23.180;2023-05-03T02:18:52;94612.44;;;12.47;47.06
21395;BME280;10858;42.714;23.180;2023-05-03T02:21:19;94621.81;;;12.61;46.80
21395;BME280;10858;42.714;23.180;2023-05-03T02:23:45;94620.28;;;12.49;46.57
21395;BME280;10858;42.714;23.180;2023-05-03T02:26:11;94611.91;;;12.34;47.40
21395;BME280;10858;42.714;23.180;2023-05-03T02:28:38;94610.63;;;12.00;47.95
21395;BME280;10858;42.714;23.180;2023-05-03T02:31:04;94612.53;;;11.88;48.38
21395;BME280;10858;42.714;23.180;2023-05-03T02:33:31;94613.28;;;11.60;48.85
21395;BME280;10858;42.714;23.180;2023-05-03T02:35:57;94620.09;;;11.83;48.91
21395;BME280;10858;42.714;23.180;2023-05-03T02:38:23;94614.28;;;11.59;48.81
21395;BME280;10858;42.714;23.180;2023-05-03T02:40:49;94604.72;;;11.47;49.23
21395;BME280;10858;42.714;23.180;2023-05-03T02:43:16;94603.47;;;11.51;49.04
21395;BME280;10858;42.714;23.180;2023-05-03T02:45:45;94614.31;;;11.69;48.83
21395;BME280;10858;42.714;23.180;2023-05-03T02:48:11;94627.22;;;11.73;48.45
21395;BME280;10858;42.714;23.180;2023-05-03T02:50:38;94638.47;;;12.06;48.53
21395;BME280;10858;42.714;23.180;2023-05-03T02:53:04;94636.66;;;12.16;48.26
21395;BME280;10858;42.714;23.180;2023-05-03T02:55:31;94629.94;;;12.31;47.93
21395;BME280;10858;42.714;23.180;2023-05-03T02:57:58;94614.69;;;12.04;48.04
21395;BME280;10858;42.714;23.180;2023-05-03T03:00:24;94627.28;;;12.31;48.18
21395;BME280;10858;42.714;23.180;2023-05-03T03:02:50;94630.09;;;12.29;48.09
21395;BME280;10858;42.714;23.180;2023-05-03T03:05:16;94616.75;;;11.91;48.40
21395;BME280;10858;42.714;23.180;2023-05-03T03:07:43;94621.13;;;12.02;48.67
21395;BME280;10858;42.714;23.180;2023-05-03T03:10:09;94634.50;;;11.90;48.90
21395;BME280;10858;42.714;23.180;2023-05-03T03:12:36;94638.97;;;11.80;49.22
21395;BME280;10858;42.714;23.180;2023-05-03T03:15:02;94625.66;;;11.71;49.47
21395;BME280;10858;42.714;23.180;2023-05-03T03:17:29;94628.50;;;11.88;49.53
21395;BME280;10858;42.714;23.180;2023-05-03T03:19:56;94634.19;;;11.74;49.61
21395;BME280;10858;42.714;23.180;2023-05-03T03:22:23;94628.81;;;11.55;49.40
21395;BME280;10858;42.714;23.180;2023-05-03T03:24:53;94628.47;;;11.69;49.33
21395;BME280;10858;42.714;23.180;2023-05-03T03:27:19;94634.41;;;12.02;48.72
21395;BME280;10858;42.714;23.180;2023-05-03T03:29:48;94630.72;;;11.83;48.72
21395;BME280;10858;42.714;23.180;2023-05-03T03:32:14;94638.81;;;11.72;48.98
21395;BME280;10858;42.714;23.180;2023-05-03T03:34:40;94645.91;;;12.12;48.82
21395;BME280;10858;42.714;23.180;2023-05-03T03:37:07;94638.22;;;12.28;48.04
21395;BME280;10858;42.714;23.180;2023-05-03T03:39:33;94655.44;;;12.43;48.12
21395;BME280;10858;42.714;23.180;2023-05-03T03:41:59;94650.41;;;12.49;48.31
21395;BME280;10858;42.714;23.180;2023-05-03T03:44:25;94653.19;;;12.48;48.01
21395;BME280;10858;42.714;23.180;2023-05-03T03:46:52;94665.66;;;12.38;48.45
21395;BME280;10858;42.714;23.180;2023-05-03T03:49:18;94653.31;;;12.37;48.86
21395;BME280;10858;42.714;23.180;2023-05-03T03:51:44;94649.16;;;12.34;48.70
21395;BME280;10858;42.714;23.180;2023-05-03T03:54:10;94656.28;;;12.24;49.57
21395;BME280;10858;42.714;23.180;2023-05-03T03:56:36;94646.03;;;12.20;49.21
21395;BME280;10858;42.714;23.180;2023-05-03T03:59:02;94655.44;;;12.33;48.66
21395;BME280;10858;42.714;23.180;2023-05-03T04:01:29;94660.47;;;12.55;48.83
21395;BME280;10858;42.714;23.180;2023-05-03T04:03:55;94665.75;;;12.08;48.48
21395;BME280;10858;42.714;23.180;2023-05-03T04:06:21;94674.38;;;11.81;49.20
21395;BME280;10858;42.714;23.180;2023-05-03T04:08:47;94666.16;;;11.93;49.56
21395;BME280;10858;42.714;23.180;2023-05-03T04:11:13;94662.16;;;12.18;49.53
21395;BME280;10858;42.714;23.180;2023-05-03T04:13:40;94665.00;;;11.86;49.41
21395;BME280;10858;42.714;23.180;2023-05-03T04:16:06;94669.78;;;11.92;49.19
21395;BME280;10858;42.714;23.180;2023-05-03T04:18:33;94661.28;;;12.08;48.90
21395;BME280;10858;42.714;23.180;2023-05-03T04:20:59;94667.72;;;11.96;49.28
21395;BME280;10858;42.714;23.180;2023-05-03T04:23:25;94670.78;;;12.11;48.72
21395;BME280;10858;42.714;23.180;2023-05-03T04:25:51;94674.69;;;11.97;49.46
21395;BME280;10858;42.714;23.180;2023-05-03T04:28:18;94686.34;;;12.25;49.63
21395;BME280;10858;42.714;23.180;2023-05-03T04:30:45;94686.44;;;11.94;48.98
21395;BME280;10858;42.714;23.180;2023-05-03T04:33:12;94702.13;;;11.98;48.74
21395;BME280;10858;42.714;23.180;2023-05-03T04:35:39;94705.50;;;12.00;49.71
21395;BME280;10858;42.714;23.180;2023-05-03T04:38:06;94710.91;;;11.88;49.38
21395;BME280;10858;42.714;23.180;2023-05-03T04:40:34;94707.75;;;12.14;49.38
21395;BME280;10858;42.714;23.180;2023-05-03T04:43:00;94716.31;;;12.27;48.50
21395;BME280;10858;42.714;23.180;2023-05-03T04:45:26;94713.00;;;11.94;49.11
21395;BME280;10858;42.714;23.180;2023-05-03T04:47:52;94705.69;;;12.27;49.27
21395;BME280;10858;42.714;23.180;2023-05-03T04:50:19;94708.06;;;12.30;48.84
21395;BME280;10858;42.714;23.180;2023-05-03T04:52:45;94720.97;;;12.34;48.83
21395;BME280;10858;42.714;23.180;2023-05-03T04:55:12;94714.25;;;12.49;48.54
21395;BME280;10858;42.714;23.180;2023-05-03T04:57:39;94720.56;;;12.67;49.47
21395;BME280;10858;42.714;23.180;2023-05-03T05:00:05;94719.72;;;12.57;48.88
21395;BME280;10858;42.714;23.180;2023-05-03T05:02:36;94723.25;;;12.48;49.15
21395;BME280;10858;42.714;23.180;2023-05-03T05:05:02;94730.38;;;12.38;48.35
21395;BME280;10858;42.714;23.180;2023-05-03T05:07:29;94735.25;;;12.43;48.61
21395;BME280;10858;42.714;23.180;2023-05-03T05:09:55;94740.09;;;12.19;49.58
21395;BME280;10858;42.714;23.180;2023-05-03T05:12:21;94746.81;;;12.23;49.66
21395;BME280;10858;42.714;23.180;2023-05-03T05:14:47;94748.13;;;11.88;50.00
21395;BME280;10858;42.714;23.180;2023-05-03T05:17:14;94753.81;;;12.14;50.55
21395;BME280;10858;42.714;23.180;2023-05-03T05:19:40;94746.81;;;12.23;50.91
21395;BME280;10858;42.714;23.180;2023-05-03T05:22:06;94750.41;;;12.03;52.66
21395;BME280;10858;42.714;23.180;2023-05-03T05:24:33;94752.13;;;11.73;54.72
21395;BME280;10858;42.714;23.180;2023-05-03T05:26:59;94753.63;;;11.46;54.46
21395;BME280;10858;42.714;23.180;2023-05-03T05:29:26;94752.28;;;11.61;56.72
21395;BME280;10858;42.714;23.180;2023-05-03T05:31:52;94755.91;;;11.50;57.46
21395;BME280;10858;42.714;23.180;2023-05-03T05:34:18;94757.91;;;11.37;58.00
21395;BME280;10858;42.714;23.180;2023-05-03T05:36:44;94751.16;;;11.12;58.96
21395;BME280;10858;42.714;23.180;2023-05-03T05:39:11;94765.16;;;11.56;58.82
21395;BME280;10858;42.714;23.180;2023-05-03T05:41:37;94762.31;;;11.48;58.62
21395;BME280;10858;42.714;23.180;2023-05-03T05:44:04;94765.72;;;11.59;60.35
21395;BME280;10858;42.714;23.180;2023-05-03T05:46:30;94772.00;;;11.79;60.96
21395;BME280;10858;42.714;23.180;2023-05-03T05:48:56;94768.22;;;12.12;60.13
21395;BME280;10858;42.714;23.180;2023-05-03T05:51:23;94774.06;;;11.96;60.64
21395;BME280;10858;42.714;23.180;2023-05-03T05:53:49;94763.44;;;12.06;61.90
21395;BME280;10858;42.714;23.180;2023-05-03T05:56:15;94767.72;;;12.27;61.56
21395;BME280;10858;42.714;23.180;2023-05-03T05:58:41;94761.22;;;12.11;60.99
21395;BME280;10858;42.714;23.180;2023-05-03T06:01:07;94764.78;;;11.90;60.66
21395;BME280;10858;42.714;23.180;2023-05-03T06:03:34;94763.28;;;11.98;61.26
21395;BME280;10858;42.714;23.180;2023-05-03T06:06:00;94771.84;;;12.11;60.35
21395;BME280;10858;42.714;23.180;2023-05-03T06:08:26;94770.22;;;12.29;60.91
21395;BME280;10858;42.714;23.180;2023-05-03T06:10:52;94766.22;;;12.63;60.71
21395;BME280;10858;42.714;23.180;2023-05-03T06:13:18;94767.34;;;12.51;59.73
21395;BME280;10858;42.714;23.180;2023-05-03T06:15:45;94772.06;;;12.28;61.14
21395;BME280;10858;42.714;23.180;2023-05-03T06:18:11;94768.22;;;12.12;61.76
21395;BME280;10858;42.714;23.180;2023-05-03T06:20:37;94761.69;;;11.85;60.92
21395;BME280;10858;42.714;23.180;2023-05-03T06:23:03;94764.06;;;11.88;60.73
21395;BME280;10858;42.714;23.180;2023-05-03T06:25:29;94759.81;;;11.76;61.16
21395;BME280;10858;42.714;23.180;2023-05-03T06:27:55;94760.78;;;12.06;62.08
21395;BME280;10858;42.714;23.180;2023-05-03T06:30:22;94769.41;;;12.38;60.49
21395;BME280;10858;42.714;23.180;2023-05-03T06:32:53;94751.53;;;12.59;58.38
21395;BME280;10858;42.714;23.180;2023-05-03T06:35:19;94753.78;;;13.02;57.87
21395;BME280;10858;42.714;23.180;2023-05-03T06:37:46;94760.94;;;13.30;56.25
21395;BME280;10858;42.714;23.180;2023-05-03T06:40:13;94748.28;;;13.60;56.36
21395;BME280;10858;42.714;23.180;2023-05-03T06:42:40;94755.31;;;13.98;56.39
21395;BME280;10858;42.714;23.180;2023-05-03T06:45:07;94749.03;;;14.17;54.66
21395;BME280;10858;42.714;23.180;2023-05-03T06:47:33;94749.41;;;14.31;53.49
21395;BME280;10858;42.714;23.180;2023-05-03T06:49:59;94751.25;;;13.94;53.04
21395;BME280;10858;42.714;23.180;2023-05-03T06:52:25;94742.75;;;13.72;54.31
21395;BME280;10858;42.714;23.180;2023-05-03T06:54:51;94739.72;;;13.47;53.91
21395;BME280;10858;42.714;23.180;2023-05-03T06:57:18;94742.84;;;13.33;55.03
21395;BME280;10858;42.714;23.180;2023-05-03T06:59:44;94743.41;;;13.46;54.99
21395;BME280;10858;42.714;23.180;2023-05-03T07:02:10;94734.56;;;13.46;53.58
21395;BME280;10858;42.714;23.180;2023-05-03T07:04:37;94738.41;;;13.24;53.50
21395;BME280;10858;42.714;23.180;2023-05-03T07:07:03;94736.66;;;13.52;55.19
21395;BME280;10858;42.714;23.180;2023-05-03T07:09:31;94746.72;;;13.58;54.08
21395;BME280;10858;42.714;23.180;2023-05-03T07:11:57;94736.34;;;13.64;53.18
21395;BME280;10858;42.714;23.180;2023-05-03T07:14:23;94737.50;;;13.89;52.97
21395;BME280;10858;42.714;23.180;2023-05-03T07:16:52;94748.28;;;13.97;53.95
21395;BME280;10858;42.714;23.180;2023-05-03T07:19:18;94738.75;;;14.49;54.39
21395;BME280;10858;42.714;23.180;2023-05-03T07:21:44;94745.38;;;14.18;51.36
21395;BME280;10858;42.714;23.180;2023-05-03T07:24:10;94764.66;;;14.39;51.63
21395;BME280;10858;42.714;23.180;2023-05-03T07:26:40;94757.63;;;14.65;52.47
21395;BME280;10858;42.714;23.180;2023-05-03T07:29:06;94769.72;;;14.42;50.21
21395;BME280;10858;42.714;23.180;2023-05-03T07:31:33;94777.25;;;14.56;49.94
21395;BME280;10858;42.714;23.180;2023-05-03T07:33:59;94766.31;;;14.94;49.54
21395;BME280;10858;42.714;23.180;2023-05-03T07:36:25;94752.47;;;15.34;49.95
21395;BME280;10858;42.714;23.180;2023-05-03T07:38:52;94753.41;;;15.43;47.87
21395;BME280;10858;42.714;23.180;2023-05-03T07:41:18;94750.78;;;15.76;49.33
21395;BME280;10858;42.714;23.180;2023-05-03T07:43:44;94747.88;;;15.44;48.61
21395;BME280;10858;42.714;23.180;2023-05-03T07:46:11;94744.59;;;16.01;47.42
21395;BME280;10858;42.714;23.180;2023-05-03T07:48:37;94759.13;;;15.99;47.24
21395;BME280;10858;42.714;23.180;2023-05-03T07:51:04;94761.00;;;16.06;47.86
21395;BME280;10858;42.714;23.180;2023-05-03T07:53:31;94750.84;;;15.59;48.02
21395;BME280;10858;42.714;23.180;2023-05-03T07:56:00;94744.03;;;15.90;48.98
21395;BME280;10858;42.714;23.180;2023-05-03T07:58:26;94751.50;;;16.12;48.87
21395;BME280;10858;42.714;23.180;2023-05-03T08:00:52;94746.97;;;16.46;47.68
21395;BME280;10858;42.714;23.180;2023-05-03T08:03:18;94732.91;;;16.94;48.65
21395;BME280;10858;42.714;23.180;2023-05-03T08:05:45;94741.84;;;17.67;47.75
21395;BME280;10858;42.714;23.180;2023-05-03T08:08:11;94751.41;;;17.77;44.75
21395;BME280;10858;42.714;23.180;2023-05-03T08:10:39;94746.44;;;16.76;46.36
21395;BME280;10858;42.714;23.180;2023-05-03T08:13:06;94751.41;;;16.55;46.61
21395;BME280;10858;42.714;23.180;2023-05-03T08:15:32;94751.09;;;16.66;48.15
21395;BME280;10858;42.714;23.180;2023-05-03T08:17:59;94757.03;;;17.02;46.21
21395;BME280;10858;42.714;23.180;2023-05-03T08:20:25;94760.91;;;17.24;47.30
21395;BME280;10858;42.714;23.180;2023-05-03T08:22:55;94762.28;;;17.36;46.00
21395;BME280;10858;42.714;23.180;2023-05-03T08:25:25;94764.47;;;17.80;45.82
21395;BME280;10858;42.714;23.180;2023-05-03T08:27:53;94764.41;;;18.76;43.47
21395;BME280;10858;42.714;23.180;2023-05-03T08:30:20;94761.13;;;19.49;40.32
21395;BME280;10858;42.714;23.180;2023-05-03T08:32:47;94752.88;;;19.51;41.36
21395;BME280;10858;42.714;23.180;2023-05-03T08:35:14;94755.56;;;17.96;43.25
21395;BME280;10858;42.714;23.180;2023-05-03T08:37:41;94750.88;;;17.34;46.19
21395;BME280;10858;42.714;23.180;2023-05-03T08:40:09;94758.41;;;18.96;42.64
21395;BME280;10858;42.714;23.180;2023-05-03T08:42:43;94747.53;;;20.17;39.69
21395;BME280;10858;42.714;23.180;2023-05-03T08:45:11;94755.63;;;19.66;40.83
21395;BME280;10858;42.714;23.180;2023-05-03T08:47:40;94748.44;;;21.48;38.52
21395;BME280;10858;42.714;23.180;2023-05-03T08:50:08;94752.50;;;22.28;36.77
21395;BME280;10858;42.714;23.180;2023-05-03T08:52:35;94755.59;;;22.94;36.84
21395;BME280;10858;42.714;23.180;2023-05-03T08:55:02;94747.75;;;21.81;37.91
21395;BME280;10858;42.714;23.180;2023-05-03T08:57:29;94753.88;;;21.12;37.93
21395;BME280;10858;42.714;23.180;2023-05-03T08:59:55;94743.59;;;19.91;38.96
21395;BME280;10858;42.714;23.180;2023-05-03T09:02:25;94763.78;;;18.65;42.62
21395;BME280;10858;42.714;23.180;2023-05-03T09:04:53;94756.13;;;18.38;43.75
21395;BME280;10858;42.714;23.180;2023-05-03T09:07:19;94752.78;;;18.44;42.92
21395;BME280;10858;42.714;23.180;2023-05-03T09:09:48;94756.75;;;17.94;46.16
21395;BME280;10858;42.714;23.180;2023-05-03T09:12:33;94757.78;;;18.55;44.85
21395;BME280;10858;42.714;23.180;2023-05-03T09:15:00;94747.41;;;19.36;43.44
21395;BME280;10858;42.714;23.180;2023-05-03T09:17:27;94742.03;;;19.59;42.08
21395;BME280;10858;42.714;23.180;2023-05-03T09:19:56;94730.88;;;19.62;39.92
21395;BME280;10858;42.714;23.180;2023-05-03T09:22:26;94742.84;;;20.19;42.15
21395;BME280;10858;42.714;23.180;2023-05-03T09:24:57;94732.31;;;20.10;39.31
21395;BME280;10858;42.714;23.180;2023-05-03T09:27:24;94721.97;;;19.99;40.20
21395;BME280;10858;42.714;23.180;2023-05-03T09:29:51;94722.50;;;20.46;41.70
21395;BME280;10858;42.714;23.180;2023-05-03T09:32:18;94728.31;;;20.64;39.33
21395;BME280;10858;42.714;23.180;2023-05-03T09:34:45;94712.22;;;21.63;38.02
21395;BME280;10858;42.714;23.180;2023-05-03T09:37:12;94712.91;;;21.44;37.58
21395;BME280;10858;42.714;23.180;2023-05-03T09:39:47;94709.78;;;20.40;37.68
21395;BME280;10858;42.714;23.180;2023-05-03T09:42:17;94702.75;;;20.75;40.56
21395;BME280;10858;42.714;23.180;2023-05-03T09:44:46;94707.31;;;21.46;37.90
21395;BME280;10858;42.714;23.180;2023-05-03T09:47:14;94707.81;;;21.56;38.08
21395;BME280;10858;42.714;23.180;2023-05-03T09:49:41;94697.22;;;21.54;38.98
21395;BME280;10858;42.714;23.180;2023-05-03T09:52:09;94699.25;;;21.10;37.21
21395;BME280;10858;42.714;23.180;2023-05-03T09:54:36;94697.16;;;21.75;36.92
21395;BME280;10858;42.714;23.180;2023-05-03T09:57:04;94702.47;;;22.11;38.27
21395;BME280;10858;42.714;23.180;2023-05-03T09:59:35;94693.13;;;22.48;37.59
21395;BME280;10858;42.714;23.180;2023-05-03T10:02:05;94690.28;;;23.03;36.11
21395;BME280;10858;42.714;23.180;2023-05-03T10:04:52;94698.88;;;22.66;35.78
21395;BME280;10858;42.714;23.180;2023-05-03T10:07:21;94697.41;;;22.63;38.67
21395;BME280;10858;42.714;23.180;2023-05-03T10:09:48;94690.66;;;22.53;35.23
21395;BME280;10858;42.714;23.180;2023-05-03T10:12:15;94694.34;;;22.11;35.44
21395;BME280;10858;42.714;23.180;2023-05-03T10:14:46;94690.78;;;22.04;37.30
21395;BME280;10858;42.714;23.180;2023-05-03T10:22:12;94682.31;;;23.55;34.98
21395;BME280;10858;42.714;23.180;2023-05-03T10:30:32;94650.63;;;23.36;34.18
21395;BME280;10858;42.714;23.180;2023-05-03T10:35:42;94645.84;;;22.37;37.87
21395;BME280;10858;42.714;23.180;2023-05-03T10:38:16;94658.53;;;22.02;37.70
21395;BME280;10858;42.714;23.180;2023-05-03T10:40:43;94658.31;;;22.32;36.11
21395;BME280;10858;42.714;23.180;2023-05-03T10:46:04;94665.31;;;21.64;37.37
21395;BME280;10858;42.714;23.180;2023-05-03T10:48:31;94657.66;;;21.68;39.46
21395;BME280;10858;42.714;23.180;2023-05-03T10:51:51;94656.63;;;22.58;37.51
21395;BME280;10858;42.714;23.180;2023-05-03T10:54:11;94658.22;;;23.00;35.09
21395;BME280;10858;42.714;23.180;2023-05-03T10:56:50;94656.34;;;23.07;37.24
21395;BME280;10858;42.714;23.180;2023-05-03T10:59:17;94672.88;;;22.71;36.88
21395;BME280;10858;42.714;23.180;2023-05-03T11:01:44;94658.38;;;22.45;36.53
21395;BME280;10858;42.714;23.180;2023-05-03T11:04:40;94653.53;;;22.34;36.81
21395;BME280;10858;42.714;23.180;2023-05-03T11:07:09;94653.13;;;21.26;39.71
21395;BME280;10858;42.714;23.180;2023-05-03T11:09:36;94650.50;;;21.11;41.39
21395;BME280;10858;42.714;23.180;2023-05-03T11:12:06;94637.16;;;20.53;42.20
21395;BME280;10858;42.714;23.180;2023-05-03T11:14:33;94644.91;;;20.42;44.01
21395;BME280;10858;42.714;23.180;2023-05-03T11:16:59;94636.91;;;20.33;42.62
21395;BME280;10858;42.714;23.180;2023-05-03T11:19:27;94644.47;;;20.95;43.88
21395;BME280;10858;42.714;23.180;2023-05-03T11:21:53;94638.66;;;21.34;41.90
21395;BME280;10858;42.714;23.180;2023-05-03T11:24:20;94641.09;;;21.29;41.38
21395;BME280;10858;42.714;23.180;2023-05-03T11:26:46;94638.81;;;21.26;41.53
21395;BME280;10858;42.714;23.180;2023-05-03T11:29:14;94639.78;;;21.18;41.13
21395;BME280;10858;42.714;23.180;2023-05-03T11:31:42;94631.78;;;20.74;41.81
21395;BME280;10858;42.714;23.180;2023-05-03T11:34:12;94625.84;;;20.28;42.74
21395;BME280;10858;42.714;23.180;2023-05-03T11:36:41;94618.41;;;20.45;44.99
21395;BME280;10858;42.714;23.180;2023-05-03T11:39:07;94616.50;;;20.96;44.74
21395;BME280;10858;42.714;23.180;2023-05-03T11:41:34;94617.06;;;21.34;40.43
21395;BME280;10858;42.714;23.180;2023-05-03T11:44:00;94613.16;;;21.15;41.69
21395;BME280;10858;42.714;23.180;2023-05-03T11:46:28;94611.25;;;21.85;42.45
21395;BME280;10858;42.714;23.180;2023-05-03T11:48:56;94605.91;;;21.92;42.51
21395;BME280;10858;42.714;23.180;2023-05-03T11:51:23;94594.75;;;22.02;40.71
21395;BME280;10858;42.714;23.180;2023-05-03T11:53:50;94580.59;;;22.40;42.77
21395;BME280;10858;42.714;23.180;2023-05-03T11:56:17;94566.00;;;23.08;41.05
21395;BME280;10858;42.714;23.180;2023-05-03T11:58:54;94564.16;;;23.61;37.88
21395;BME280;10858;42.714;23.180;2023-05-03T12:01:23;94565.69;;;24.34;39.58
21395;BME280;10858;42.714;23.180;2023-05-03T12:04:00;94553.03;;;24.59;38.06
21395;BME280;10858;42.714;23.180;2023-05-03T12:06:29;94554.97;;;23.75;39.13
21395;BME280;10858;42.714;23.180;2023-05-03T12:08:56;94544.22;;;24.26;37.01
21395;BME280;10858;42.714;23.180;2023-05-03T12:11:22;94545.59;;;24.48;36.69
21395;BME280;10858;42.714;23.180;2023-05-03T12:13:57;94548.53;;;23.76;38.00
21395;BME280;10858;42.714;23.180;2023-05-03T12:16:24;94546.47;;;23.58;38.38
21395;BME280;10858;42.714;23.180;2023-05-03T12:18:57;94553.72;;;23.12;40.00
21395;BME280;10858;42.714;23.180;2023-05-03T12:21:45;94547.69;;;21.89;42.35
21395;BME280;10858;42.714;23.180;2023-05-03T12:24:11;94551.34;;;21.75;41.54
21395;BME280;10858;42.714;23.180;2023-05-03T12:26:45;94555.69;;;22.04;40.36
21395;BME280;10858;42.714;23.180;2023-05-03T12:29:11;94552.00;;;21.50;42.87
21395;BME280;10858;42.714;23.180;2023-05-03T12:31:38;94561.44;;;20.69;44.36
21395;BME280;10858;42.714;23.180;2023-05-03T12:34:04;94552.66;;;20.10;44.50
21395;BME280;10858;42.714;23.180;2023-05-03T12:36:31;94550.41;;;19.64;46.41
21395;BME280;10858;42.714;23.180;2023-05-03T12:39:01;94543.03;;;19.72;47.17
21395;BME280;10858;42.714;23.180;2023-05-03T12:41:28;94547.88;;;19.33;47.36
21395;BME280;10858;42.714;23.180;2023-05-03T12:44:02;94556.84;;;18.65;49.64
21395;BME280;10858;42.714;23.180;2023-05-03T12:46:29;94558.38;;;18.37;49.21
21395;BME280;10858;42.714;23.180;2023-05-03T12:48:55;94547.56;;;17.53;51.08
21395;BME280;10858;42.714;23.180;2023-05-03T12:51:21;94558.50;;;17.12;52.35
21395;BME280;10858;42.714;23.180;2023-05-03T12:53:50;94550.03;;;17.63;51.53
21395;BME280;10858;42.714;23.180;2023-05-03T12:56:16;94558.47;;;17.20;52.33
21395;BME280;10858;42.714;23.180;2023-05-03T12:58:42;94557.00;;;17.17;52.78
21395;BME280;10858;42.714;23.180;2023-05-03T13:01:09;94555.34;;;16.92;53.55
21395;BME280;10858;42.714;23.180;2023-05-03T13:03:36;94544.81;;;16.98;53.67
21395;BME280;10858;42.714;23.180;2023-05-03T13:06:03;94542.78;;;16.92;53.24
21395;BME280;10858;42.714;23.180;2023-05-03T13:08:30;94539.13;;;16.77;54.69
21395;BME280;10858;42.714;23.180;2023-05-03T13:10:56;94529.59;;;16.67;54.65
21395;BME280;10858;42.714;23.180;2023-05-03T13:13:22;94541.78;;;16.77;54.35
21395;BME280;10858;42.714;23.180;2023-05-03T13:15:50;94546.28;;;16.37;57.24
21395;BME280;10858;42.714;23.180;2023-05-03T13:18:18;94548.94;;;16.21;59.84
21395;BME280;10858;42.714;23.180;2023-05-03T13:20:45;94549.75;;;15.97;62.37